createdAt,value
2023-04-24T00:01:51.312Z,9.15
2023-04-24T00:04:18.473Z,10.48
2023-04-24T00:06:50.368Z,9.98
2023-04-24T00:09:17.463Z,11.60
2023-04-24T00:11:44.434Z,8.88
2023-04-24T00:14:11.351Z,10.25
2023-04-24T00:16:38.341Z,12.18
2023-04-24T00:19:06.922Z,10.65
2023-04-24T00:21:33.866Z,9.88
2023-04-24T00:24:00.877Z,9.57
2023-04-24T00:26:27.873Z,10.15
2023-04-24T00:28:54.820Z,11.55
2023-04-24T00:31:22.205Z,12.75
2023-04-24T00:33:49.211Z,10.30
2023-04-24T00:36:16.172Z,13.32
2023-04-24T00:38:43.087Z,11.80
2023-04-24T00:41:10.394Z,11.30
2023-04-24T00:43:37.328Z,13.93
2023-04-24T00:46:04.855Z,9.93
2023-04-24T00:48:32.619Z,10.02
2023-04-24T00:50:59.682Z,12.30
2023-04-24T00:53:26.650Z,11.68
2023-04-24T00:55:53.741Z,10.02
2023-04-24T00:58:21.003Z,11.52
2023-04-24T01:00:50.016Z,11.15
2023-04-24T01:03:17.903Z,12.48
2023-04-24T01:05:44.987Z,10.00
2023-04-24T01:08:12.629Z,8.65
2023-04-24T01:10:41.714Z,10.02
2023-04-24T01:13:09.431Z,10.77
2023-04-24T01:15:36.579Z,10.45
2023-04-24T01:18:04.529Z,11.57
2023-04-24T01:20:32.900Z,12.27
2023-04-24T01:22:59.981Z,14.30
2023-04-24T01:25:28.600Z,12.85
2023-04-24T01:27:58.038Z,11.38
2023-04-24T01:30:25.203Z,13.75
2023-04-24T01:32:53.252Z,11.13
2023-04-24T01:35:21.148Z,12.07
2023-04-24T01:37:48.146Z,12.00
2023-04-24T01:40:15.455Z,11.55
2023-04-24T01:42:43.351Z,11.43
2023-04-24T01:45:13.606Z,11.85
2023-04-24T01:47:40.859Z,11.63
2023-04-24T01:50:08.329Z,11.30
2023-04-24T01:52:37.041Z,10.75
2023-04-24T01:55:06.112Z,11.95
2023-04-24T01:57:33.731Z,11.52
2023-04-24T02:00:01.156Z,10.60
2023-04-24T02:02:30.992Z,11.95
2023-04-24T02:04:58.554Z,9.52
2023-04-24T02:07:25.607Z,10.07
2023-04-24T02:09:52.724Z,10.18
2023-04-24T02:12:19.696Z,9.50
2023-04-24T02:14:46.757Z,11.85
2023-04-24T02:17:15.076Z,9.70
2023-04-24T02:19:42.404Z,9.05
2023-04-24T02:22:11.620Z,8.70
2023-04-24T02:24:39.414Z,10.50
2023-04-24T02:27:07.643Z,11.23
2023-04-24T02:29:34.739Z,9.65
2023-04-24T02:32:02.020Z,9.60
2023-04-24T02:34:28.986Z,9.98
2023-04-24T02:36:56.013Z,9.50
2023-04-24T02:39:23.115Z,8.27
2023-04-24T02:41:50.124Z,8.65
2023-04-24T02:44:18.289Z,7.70
2023-04-24T02:46:45.671Z,6.95
2023-04-24T02:49:13.069Z,7.43
2023-04-24T02:51:42.129Z,8.40
2023-04-24T02:54:11.028Z,8.52
2023-04-24T02:56:38.335Z,7.55
2023-04-24T02:59:07.064Z,8.27
2023-04-24T03:01:34.642Z,8.23
2023-04-24T03:04:01.987Z,8.68
2023-04-24T03:06:29.206Z,8.65
2023-04-24T03:08:56.177Z,7.10
2023-04-24T03:11:23.087Z,6.63
2023-04-24T03:13:50.071Z,7.20
2023-04-24T03:16:17.072Z,6.55
2023-04-24T03:18:43.988Z,8.05
2023-04-24T03:21:11.097Z,8.63
2023-04-24T03:23:38.093Z,8.55
2023-04-24T03:26:05.447Z,7.03
2023-04-24T03:28:34.192Z,8.13
2023-04-24T03:31:04.936Z,6.65
2023-04-24T03:33:37.140Z,7.28
2023-04-24T03:36:04.272Z,6.70
2023-04-24T03:38:39.296Z,6.95
2023-04-24T03:41:20.010Z,7.13
2023-04-24T03:43:50.759Z,9.10
2023-04-24T03:46:17.915Z,7.38
2023-04-24T03:48:54.175Z,8.43
2023-04-24T03:51:25.345Z,7.38
2023-04-24T03:53:55.936Z,6.45
2023-04-24T03:56:24.403Z,8.18
2023-04-24T03:58:51.478Z,7.20
2023-04-24T04:01:19.941Z,6.75
2023-04-24T04:03:52.186Z,6.53
2023-04-24T04:06:23.011Z,8.00
2023-04-24T04:08:51.692Z,7.25
2023-04-24T04:11:18.776Z,7.28
2023-04-24T04:13:48.982Z,6.38
2023-04-24T04:16:18.492Z,6.07
2023-04-24T04:18:46.650Z,7.43
2023-04-24T04:21:13.813Z,6.50
2023-04-24T04:23:41.352Z,5.95
2023-04-24T04:26:14.626Z,6.20
2023-04-24T04:28:57.303Z,5.55
2023-04-24T04:31:24.567Z,4.45
2023-04-24T04:33:51.877Z,3.33
2023-04-24T04:36:19.062Z,4.93
2023-04-24T04:38:50.979Z,4.88
2023-04-24T04:41:36.151Z,4.57
2023-04-24T04:44:05.574Z,5.50
2023-04-24T04:46:34.211Z,4.88
2023-04-24T04:49:09.573Z,4.70
2023-04-24T04:51:36.700Z,5.05
2023-04-24T04:54:03.696Z,5.10
2023-04-24T04:56:30.948Z,5.60
2023-04-24T04:59:00.922Z,5.57
2023-04-24T05:01:28.603Z,6.35
2023-04-24T05:03:56.773Z,7.95
2023-04-24T05:06:24.600Z,5.35
2023-04-24T05:08:52.315Z,4.93
2023-04-24T05:11:31.364Z,4.65
2023-04-24T05:13:59.681Z,4.82
2023-04-24T05:16:34.908Z,5.90
2023-04-24T05:19:02.413Z,5.85
2023-04-24T05:21:34.729Z,5.35
2023-04-24T05:24:01.848Z,6.78
2023-04-24T05:26:47.810Z,5.30
2023-04-24T05:29:17.031Z,6.15
2023-04-24T05:31:43.956Z,6.15
2023-04-24T05:34:11.263Z,5.97
2023-04-24T05:36:41.679Z,4.85
2023-04-24T05:39:09.599Z,5.85
2023-04-24T05:41:36.702Z,5.30
2023-04-24T05:44:03.651Z,5.93
2023-04-24T05:46:30.657Z,4.55
2023-04-24T05:48:57.721Z,5.55
2023-04-24T05:51:25.067Z,5.55
2023-04-24T05:53:52.288Z,6.07
2023-04-24T05:56:19.982Z,6.70
2023-04-24T05:58:47.320Z,5.32
2023-04-24T06:01:17.728Z,5.50
2023-04-24T06:03:48.681Z,6.88
2023-04-24T06:06:16.673Z,6.25
2023-04-24T06:08:45.109Z,5.60
2023-04-24T06:11:12.054Z,6.55
2023-04-24T06:13:39.867Z,6.30
2023-04-24T06:16:25.655Z,4.75
2023-04-24T06:18:59.810Z,8.65
2023-04-24T06:21:26.920Z,5.60
2023-04-24T06:23:53.991Z,3.97
2023-04-24T06:26:21.040Z,4.28
2023-04-24T06:28:48.120Z,4.47
2023-04-24T06:31:15.267Z,4.57
2023-04-24T06:33:42.271Z,8.00
2023-04-24T06:36:10.424Z,4.45
2023-04-24T06:38:37.375Z,4.25
2023-04-24T06:41:06.104Z,3.72
2023-04-24T06:43:33.323Z,4.63
2023-04-24T06:46:01.424Z,3.55
2023-04-24T06:48:28.332Z,6.45
2023-04-24T06:50:55.213Z,3.13
2023-04-24T06:53:22.142Z,4.03
2023-04-24T06:55:49.486Z,4.32
2023-04-24T06:58:17.023Z,5.43
2023-04-24T07:00:43.949Z,5.18
2023-04-24T07:03:11.146Z,4.65
2023-04-24T07:05:39.228Z,5.55
2023-04-24T07:08:07.769Z,4.72
2023-04-24T07:10:36.809Z,4.72
2023-04-24T07:13:03.819Z,3.63
2023-04-24T07:15:31.546Z,3.25
2023-04-24T07:17:58.521Z,3.50
2023-04-24T07:20:25.600Z,3.47
2023-04-24T07:22:54.869Z,3.65
2023-04-24T07:25:21.940Z,3.63
2023-04-24T07:27:50.014Z,4.35
2023-04-24T07:30:17.422Z,6.03
2023-04-24T07:32:44.350Z,4.43
2023-04-24T07:35:11.364Z,6.22
2023-04-24T07:37:38.361Z,2.15
2023-04-24T07:40:05.768Z,4.30
2023-04-24T07:42:32.708Z,4.18
2023-04-24T07:45:00.769Z,4.35
2023-04-24T07:47:27.928Z,4.78
2023-04-24T07:49:54.976Z,3.30
2023-04-24T07:52:21.977Z,4.25
2023-04-24T07:54:48.918Z,7.72
2023-04-24T07:57:15.925Z,3.75
2023-04-24T07:59:43.584Z,3.25
2023-04-24T08:02:10.785Z,2.83
2023-04-24T08:04:37.981Z,4.53
2023-04-24T08:07:05.093Z,5.88
2023-04-24T08:09:32.258Z,4.45
2023-04-24T08:11:59.333Z,2.70
2023-04-24T08:14:26.262Z,4.35
2023-04-24T08:16:57.026Z,4.60
2023-04-24T08:19:23.986Z,5.80
2023-04-24T08:21:51.041Z,4.03
2023-04-24T08:24:17.965Z,3.63
2023-04-24T08:26:45.218Z,7.10
2023-04-24T08:29:12.164Z,3.15
2023-04-24T08:31:39.144Z,3.00
2023-04-24T08:34:06.298Z,4.32
2023-04-24T08:36:46.059Z,5.15
2023-04-24T08:39:14.403Z,4.28
2023-04-24T08:41:44.314Z,4.85
2023-04-24T08:44:11.628Z,4.28
2023-04-24T08:46:38.947Z,4.03
2023-04-24T08:49:06.113Z,4.15
2023-04-24T08:51:33.043Z,4.47
2023-04-24T08:54:00.255Z,3.97
2023-04-24T08:56:28.403Z,5.88
2023-04-24T08:58:55.893Z,5.45
2023-04-24T09:01:26.023Z,5.38
2023-04-24T09:03:54.574Z,4.13
2023-04-24T09:06:22.805Z,4.88
2023-04-24T09:08:52.177Z,5.63
2023-04-24T09:11:19.406Z,4.78
2023-04-24T09:13:46.699Z,5.00
2023-04-24T09:16:15.460Z,3.95
2023-04-24T09:18:42.647Z,5.30
2023-04-24T09:21:10.839Z,3.90
2023-04-24T09:23:37.800Z,4.82
2023-04-24T09:26:08.369Z,4.40
2023-04-24T09:28:40.633Z,5.38
2023-04-24T09:31:12.526Z,3.50
2023-04-24T09:33:39.427Z,4.97
2023-04-24T09:36:07.367Z,3.83
2023-04-24T09:38:38.821Z,4.65
2023-04-24T09:41:07.927Z,5.15
2023-04-24T09:43:36.144Z,3.75
2023-04-24T09:46:08.584Z,3.60
2023-04-24T09:48:39.431Z,4.63
2023-04-24T09:51:08.179Z,3.03
2023-04-24T09:53:35.153Z,4.10
2023-04-24T09:56:13.540Z,5.30
2023-04-24T09:58:40.812Z,6.13
2023-04-24T10:01:08.087Z,3.80
2023-04-24T10:03:36.667Z,3.95
2023-04-24T10:06:10.092Z,6.35
2023-04-24T10:08:38.640Z,5.95
2023-04-24T10:11:06.442Z,4.82
2023-04-24T10:13:33.855Z,6.32
2023-04-24T10:16:02.874Z,8.25
2023-04-24T10:18:31.038Z,4.82
2023-04-24T10:20:58.412Z,3.90
2023-04-24T10:23:26.871Z,4.65
2023-04-24T10:25:54.772Z,5.88
2023-04-24T10:28:22.634Z,5.50
2023-04-24T10:30:51.326Z,4.60
2023-04-24T10:33:18.872Z,4.43
2023-04-24T10:35:50.918Z,4.25
2023-04-24T10:38:26.789Z,4.60
2023-04-24T10:41:09.262Z,4.60
2023-04-24T10:43:36.530Z,5.45
2023-04-24T10:46:05.858Z,4.90
2023-04-24T10:48:33.759Z,3.95
2023-04-24T10:51:00.891Z,3.65
2023-04-24T10:53:31.580Z,3.35
2023-04-24T10:56:14.423Z,3.72
2023-04-24T10:58:53.262Z,4.22
2023-04-24T11:01:31.647Z,2.65
2023-04-24T11:04:00.925Z,2.10
2023-04-24T11:06:35.939Z,3.17
2023-04-24T11:09:06.489Z,4.28
2023-04-24T11:11:34.255Z,2.38
2023-04-24T11:14:01.313Z,2.60
2023-04-24T11:16:35.680Z,3.30
2023-04-24T11:19:11.086Z,1.92
2023-04-24T11:21:56.524Z,2.95
2023-04-24T11:24:31.911Z,2.08
2023-04-24T11:27:09.165Z,3.17
2023-04-24T11:29:55.826Z,2.72
2023-04-24T11:32:34.872Z,1.83
2023-04-24T11:35:10.030Z,1.10
2023-04-24T11:37:38.221Z,2.03
2023-04-24T11:40:09.987Z,1.17
2023-04-24T11:42:42.085Z,1.95
2023-04-24T11:45:19.298Z,1.95
2023-04-24T11:47:46.653Z,1.73
2023-04-24T11:50:19.754Z,2.55
2023-04-24T11:52:48.604Z,1.85
2023-04-24T11:55:15.487Z,2.28
2023-04-24T11:57:50.792Z,1.35
2023-04-24T12:00:20.307Z,1.48
2023-04-24T12:02:48.316Z,2.60
2023-04-24T12:05:27.245Z,1.42
2023-04-24T12:07:54.979Z,2.92
2023-04-24T12:10:26.880Z,1.33
2023-04-24T12:12:54.394Z,0.95
2023-04-24T12:15:22.316Z,1.38
2023-04-24T12:17:52.437Z,2.58
2023-04-24T12:20:33.811Z,0.93
2023-04-24T12:23:02.246Z,1.20
2023-04-24T12:25:33.869Z,1.85
2023-04-24T12:28:04.017Z,2.28
2023-04-24T12:30:32.844Z,1.30
2023-04-24T12:33:01.820Z,1.45
2023-04-24T12:35:32.738Z,2.13
2023-04-24T12:38:14.718Z,2.42
2023-04-24T12:40:42.982Z,1.77
2023-04-24T12:43:17.647Z,1.45
2023-04-24T12:45:46.065Z,2.30
2023-04-24T12:48:15.110Z,2.50
2023-04-24T12:50:45.469Z,2.15
2023-04-24T12:53:13.452Z,2.78
2023-04-24T12:55:41.134Z,1.92
2023-04-24T12:58:08.282Z,2.25
2023-04-24T13:00:35.456Z,3.35
2023-04-24T13:03:03.256Z,2.20
2023-04-24T13:05:31.059Z,2.65
2023-04-24T13:07:58.634Z,1.98
2023-04-24T13:10:25.885Z,2.00
2023-04-24T13:12:52.932Z,1.52
2023-04-24T13:15:19.985Z,2.75
2023-04-24T13:17:46.975Z,1.48
2023-04-24T13:20:14.165Z,2.47
2023-04-24T13:22:41.222Z,2.92
2023-04-24T13:25:08.489Z,1.42
2023-04-24T13:27:35.558Z,1.67
2023-04-24T13:30:02.563Z,1.15
2023-04-24T13:32:29.997Z,1.67
2023-04-24T13:34:57.943Z,0.75
2023-04-24T13:37:24.926Z,1.63
2023-04-24T13:39:52.394Z,1.10
2023-04-24T13:42:21.046Z,1.40
2023-04-24T13:44:48.392Z,1.73
2023-04-24T13:47:15.327Z,2.92
2023-04-24T13:49:42.304Z,2.38
2023-04-24T13:52:11.315Z,1.95
2023-04-24T13:54:38.410Z,1.17
2023-04-24T13:57:05.520Z,1.38
2023-04-24T13:59:32.519Z,1.67
2023-04-24T14:01:59.476Z,1.25
2023-04-24T14:04:26.840Z,1.33
2023-04-24T14:06:53.899Z,1.60
2023-04-24T14:09:20.846Z,2.70
2023-04-24T14:11:47.847Z,2.05
2023-04-24T14:14:14.817Z,0.80
2023-04-24T14:16:41.901Z,2.95
2023-04-24T14:19:08.859Z,1.20
2023-04-24T14:21:36.011Z,3.35
2023-04-24T14:24:02.912Z,1.85
2023-04-24T14:26:30.100Z,0.75
2023-04-24T14:29:07.643Z,1.90
2023-04-24T14:31:41.057Z,1.70
2023-04-24T14:34:11.065Z,1.02
2023-04-24T14:36:38.625Z,0.47
2023-04-24T14:39:08.075Z,0.80
2023-04-24T14:41:36.965Z,1.35
2023-04-24T14:44:05.050Z,0.63
2023-04-24T14:46:32.158Z,1.20
2023-04-24T14:48:59.502Z,0.40
2023-04-24T14:51:26.604Z,0.60
2023-04-24T14:53:53.843Z,1.70
2023-04-24T14:56:20.858Z,1.15
2023-04-24T14:58:47.940Z,0.90
2023-04-24T15:01:15.342Z,2.00
2023-04-24T15:03:43.614Z,1.08
2023-04-24T15:06:11.027Z,1.08
2023-04-24T15:08:38.004Z,0.55
2023-04-24T15:11:05.317Z,1.85
2023-04-24T15:13:32.753Z,1.08
2023-04-24T15:15:59.684Z,0.45
2023-04-24T15:18:26.608Z,0.68
2023-04-24T15:20:53.536Z,0.85
2023-04-24T15:23:20.919Z,1.67
2023-04-24T15:25:48.226Z,1.05
2023-04-24T15:28:17.004Z,0.90
2023-04-24T15:30:43.923Z,0.63
2023-04-24T15:33:11.008Z,0.32
2023-04-24T15:35:38.009Z,1.60
2023-04-24T15:38:05.190Z,1.38
2023-04-24T15:40:32.150Z,7.07
2023-04-24T15:42:59.134Z,0.90
2023-04-24T15:45:26.200Z,0.88
2023-04-24T15:47:53.261Z,1.23
2023-04-24T15:50:22.561Z,0.52
2023-04-24T15:52:49.642Z,0.65
2023-04-24T15:55:16.635Z,0.30
2023-04-24T15:57:43.856Z,0.68
2023-04-24T16:00:11.507Z,1.20
2023-04-24T16:02:39.122Z,1.17
2023-04-24T16:05:07.443Z,1.05
2023-04-24T16:07:35.433Z,1.00
2023-04-24T16:10:02.445Z,2.72
2023-04-24T16:12:29.696Z,1.23
2023-04-24T16:14:56.766Z,1.13
2023-04-24T16:17:23.755Z,1.38
2023-04-24T16:19:50.794Z,1.90
2023-04-24T16:22:17.897Z,3.17
2023-04-24T16:24:47.127Z,2.15
2023-04-24T16:27:15.491Z,1.48
2023-04-24T16:29:42.548Z,1.63
2023-04-24T16:32:10.158Z,1.73
2023-04-24T16:34:37.342Z,1.27
2023-04-24T16:37:05.417Z,1.45
2023-04-24T16:39:32.570Z,1.92
2023-04-24T16:42:00.344Z,3.10
2023-04-24T16:44:28.239Z,1.67
2023-04-24T16:46:55.633Z,0.52
2023-04-24T16:49:23.866Z,0.98
2023-04-24T16:51:51.185Z,0.73
2023-04-24T16:54:18.112Z,1.67
2023-04-24T16:56:45.056Z,1.15
2023-04-24T16:59:12.429Z,0.70
2023-04-24T17:01:39.375Z,3.13
2023-04-24T17:04:06.595Z,0.68
2023-04-24T17:06:33.749Z,2.15
2023-04-24T17:09:00.885Z,4.88
2023-04-24T17:11:29.894Z,1.67
2023-04-24T17:13:59.728Z,0.52
2023-04-24T17:16:27.486Z,0.65
2023-04-24T17:18:54.543Z,3.00
2023-04-24T17:21:21.484Z,2.20
2023-04-24T17:23:48.381Z,1.50
2023-04-24T17:26:15.374Z,0.88
2023-04-24T17:28:42.421Z,1.95
2023-04-24T17:31:09.358Z,2.60
2023-04-24T17:33:36.370Z,1.85
2023-04-24T17:36:03.329Z,1.50
2023-04-24T17:38:30.672Z,1.10
2023-04-24T17:40:58.355Z,2.25
2023-04-24T17:43:26.107Z,4.38
2023-04-24T17:45:57.059Z,2.33
2023-04-24T17:48:23.992Z,2.15
2023-04-24T17:50:51.717Z,2.28
2023-04-24T17:53:19.038Z,3.20
2023-04-24T17:55:49.269Z,2.08
2023-04-24T17:58:16.859Z,2.70
2023-04-24T18:00:43.897Z,2.63
2023-04-24T18:03:11.092Z,2.75
2023-04-24T18:05:39.428Z,4.07
2023-04-24T18:08:06.543Z,1.33
2023-04-24T18:10:37.263Z,2.17
2023-04-24T18:13:05.390Z,2.72
2023-04-24T18:15:32.802Z,2.78
2023-04-24T18:17:59.937Z,2.17
2023-04-24T18:20:27.242Z,3.88
2023-04-24T18:22:54.342Z,2.08
2023-04-24T18:25:26.639Z,3.15
2023-04-24T18:27:55.806Z,2.22
2023-04-24T18:30:24.575Z,2.20
2023-04-24T18:32:53.648Z,3.15
2023-04-24T18:35:21.873Z,3.03
2023-04-24T18:37:49.705Z,3.88
2023-04-24T18:40:17.467Z,2.70
2023-04-24T18:42:45.121Z,3.15
2023-04-24T18:45:14.950Z,3.53
2023-04-24T18:47:42.880Z,3.85
2023-04-24T18:50:10.954Z,4.65
2023-04-24T18:52:38.048Z,3.70
2023-04-24T18:55:06.644Z,4.65
2023-04-24T18:57:33.973Z,5.53
2023-04-24T19:00:00.967Z,8.02
2023-04-24T19:02:28.271Z,3.33
2023-04-24T19:04:55.690Z,3.50
2023-04-24T19:07:22.865Z,6.35
2023-04-24T19:09:50.021Z,9.98
2023-04-24T19:12:17.186Z,6.22
2023-04-24T19:14:45.710Z,4.45
2023-04-24T19:17:12.719Z,3.05
2023-04-24T19:19:39.728Z,6.47
2023-04-24T19:22:07.732Z,5.82
2023-04-24T19:24:37.223Z,8.52
2023-04-24T19:27:04.271Z,3.28
2023-04-24T19:29:31.315Z,3.47
2023-04-24T19:31:58.804Z,2.75
2023-04-24T19:34:26.451Z,5.20
2023-04-24T19:36:53.553Z,3.95
2023-04-24T19:39:20.724Z,3.97
2023-04-24T19:41:48.171Z,4.68
2023-04-24T19:44:17.280Z,3.72
2023-04-24T19:46:44.600Z,3.63
2023-04-24T19:49:11.988Z,4.50
2023-04-24T19:51:39.396Z,5.35
2023-04-24T19:54:06.835Z,4.93
2023-04-24T19:56:34.063Z,5.72
2023-04-24T19:59:01.156Z,4.78
2023-04-24T20:01:28.620Z,4.93
2023-04-24T20:03:56.146Z,5.20
2023-04-24T20:06:23.502Z,4.22
2023-04-24T20:08:50.953Z,4.00
2023-04-24T20:11:18.265Z,4.85
2023-04-24T20:13:45.593Z,4.82
2023-04-24T20:16:12.670Z,6.28
2023-04-24T20:18:39.764Z,4.22
2023-04-24T20:21:06.891Z,5.80
2023-04-24T20:23:33.986Z,7.43
2023-04-24T20:26:01.392Z,5.90
2023-04-24T20:28:31.508Z,5.20
2023-04-24T20:30:59.484Z,4.68
2023-04-24T20:33:28.034Z,5.32
2023-04-24T20:35:55.725Z,5.22
2023-04-24T20:38:24.337Z,5.95
2023-04-24T20:40:57.309Z,5.18
2023-04-24T20:43:28.372Z,5.72
2023-04-24T20:45:58.614Z,4.30
2023-04-24T20:48:26.490Z,5.80
2023-04-24T20:50:53.930Z,4.10
2023-04-24T20:53:21.584Z,5.45
2023-04-24T20:55:48.826Z,6.28
2023-04-24T20:58:18.338Z,6.47
2023-04-24T21:00:46.826Z,5.43
2023-04-24T21:03:13.925Z,5.15
2023-04-24T21:05:40.840Z,3.72
2023-04-24T21:08:07.786Z,5.70
2023-04-24T21:10:34.788Z,2.75
2023-04-24T21:13:01.720Z,3.05
2023-04-24T21:15:29.384Z,2.67
2023-04-24T21:17:56.935Z,4.63
2023-04-24T21:20:24.099Z,5.15
2023-04-24T21:22:51.036Z,4.45
2023-04-24T21:25:18.189Z,8.20
2023-04-24T21:27:45.367Z,12.40
2023-04-24T21:30:12.949Z,13.18
2023-04-24T21:32:40.582Z,10.98
2023-04-24T21:35:08.012Z,11.95
2023-04-24T21:37:36.281Z,15.30
2023-04-24T21:40:04.867Z,8.15
2023-04-24T21:42:32.023Z,8.80
2023-04-24T21:44:59.047Z,8.48
2023-04-24T21:47:26.017Z,7.78
2023-04-24T21:49:53.377Z,8.02
2023-04-24T21:52:20.309Z,9.15
2023-04-24T21:54:47.263Z,10.68
2023-04-24T21:57:14.486Z,8.88
2023-04-24T21:59:41.550Z,8.25
2023-04-24T22:02:08.665Z,8.75
2023-04-24T22:04:35.854Z,9.38
2023-04-24T22:07:03.041Z,7.82
2023-04-24T22:09:30.095Z,9.35
2023-04-24T22:11:57.081Z,10.50
2023-04-24T22:14:24.046Z,7.50
2023-04-24T22:16:50.958Z,8.02
2023-04-24T22:19:17.929Z,7.10
2023-04-24T22:21:45.098Z,6.93
2023-04-24T22:24:12.204Z,7.57
2023-04-24T22:26:39.162Z,6.25
2023-04-24T22:29:06.346Z,6.93
2023-04-24T22:31:33.394Z,7.07
2023-04-24T22:34:00.413Z,5.88
2023-04-24T22:36:28.532Z,6.38
2023-04-24T22:38:55.748Z,7.93
2023-04-24T22:41:23.308Z,5.75
2023-04-24T22:43:50.526Z,5.43
2023-04-24T22:46:17.933Z,6.00
2023-04-24T22:48:45.594Z,4.78
2023-04-24T22:51:12.692Z,5.40
2023-04-24T22:53:39.643Z,6.03
2023-04-24T22:56:06.987Z,5.00
2023-04-24T22:58:33.926Z,5.55
2023-04-24T23:01:00.947Z,5.30
2023-04-24T23:03:28.071Z,4.85
2023-04-24T23:05:55.102Z,5.05
2023-04-24T23:08:22.078Z,5.32
2023-04-24T23:10:49.033Z,4.75
2023-04-24T23:13:16.372Z,4.22
2023-04-24T23:15:43.570Z,5.05
2023-04-24T23:18:11.630Z,5.63
2023-04-24T23:20:39.023Z,3.97
2023-04-24T23:23:05.955Z,5.80
2023-04-24T23:25:33.053Z,5.38
2023-04-24T23:28:00.031Z,4.30
2023-04-24T23:30:27.122Z,4.28
2023-04-24T23:32:54.150Z,4.75
2023-04-24T23:35:21.208Z,3.72
2023-04-24T23:37:48.363Z,3.28
2023-04-24T23:40:15.331Z,5.45
2023-04-24T23:42:42.225Z,4.40
2023-04-24T23:45:10.998Z,5.55
2023-04-24T23:47:38.460Z,4.68
2023-04-24T23:50:05.948Z,4.47
2023-04-24T23:52:35.265Z,3.20
2023-04-24T23:55:05.434Z,3.67
2023-04-24T23:57:32.417Z,4.10
2023-04-24T23:59:59.359Z,3.53
